KAAT

Details ICAO KAAT
Name Alturas Muni
Region United States
Timezone America/Los_Angeles (UTC-7.0)
Plans Departing 2
Arriving 3
Stats Elevation 4,374 ft / 1,333 m (AMSL)
Location 41.482993° -120.565353°
Runways 2
Magnetic Variation 13.937° E
Sunrise 2018-05-27 12:34:57 UTC / 2018-05-27 05:34:57 Local
Sunset 2018-05-28 03:26:50 UTC / 2018-05-27 20:26:50 Local
Advertisement - Login to hide

Runways

ID Width Length Bearing (true) Bearing (mag) Surface Threshold Offset Overrun Length
03 59 ft / 18 m 3,142 ft / 958 m 46.21° 32.27° Asphalt 253 ft / 77 m 0 ft / 0 m
13 49 ft / 15 m 4,305 ft / 1,312 m 148.44° 134.50° Asphalt 200 ft / 61 m 0 ft / 0 m
21 59 ft / 18 m 3,142 ft / 958 m 226.21° 212.27° Asphalt 318 ft / 97 m 180 ft / 55 m
31 49 ft / 15 m 4,305 ft / 1,312 m 328.44° 314.50° Asphalt 0 ft / 0 m 0 ft / 0 m

Map

Weather


0- 5 10 15 20 25 30 35+ Temperature / ° C

Clouds and Precipitation
Forecast for 2018-05-27 18:00 UTC. Updated 3 hours ago

Ground ~20,000 ft ~40,000 ft Winds

METAR

KAAT 271955Z AUTO 36011G17KT 10SM CLR 18/06 A3013 RMK AO2 SLP177 T01830056

TAF

Not found

Frequencies

Recorded 124.17 MHz ASOS
Unicom 122.80 MHz CTAF/UNICOM
Warning: Do not use this data for real-world aviation or navigation. No guarantee of current accuracy is given.